Time;durP1;ratioP1;P1;durP2;ratioP2;P2;SDS_P1;SDS_P2;PMS_P1;PMS_P2;Temp;Humidity;BMP_temperature;BMP_pressure;BME280_temperature;BME280_humidity;BME280_pressure;Samples;Min_cycle;Max_cycle;Signal;HPM_P1;HPM_P2
2022/07/14 00:00:08;;;;;;;1.55;1.20;;;;;;;21.07;60.52;99593.59;5084479;28;20667;-80
2022/07/14 00:02:35;;;;;;;1.50;1.33;;;;;;;21.09;60.25;99602.25;5090385;28;20227;-81
2022/07/14 00:05:02;;;;;;;1.50;1.40;;;;;;;21.05;60.64;99595.78;5081797;28;20309;-79
2022/07/14 00:07:29;;;;;;;1.90;1.20;;;;;;;21.04;60.81;99590.63;5090878;28;20315;-79
2022/07/14 00:09:55;;;;;;;2.05;1.30;;;;;;;21.01;61.31;99589.28;5095013;28;20314;-80
2022/07/14 00:12:22;;;;;;;2.47;1.40;;;;;;;20.98;61.28;99589.06;5090401;28;20258;-79
2022/07/14 00:14:49;;;;;;;1.67;1.40;;;;;;;20.93;61.55;99587.19;5092585;28;20259;-79
2022/07/14 00:17:15;;;;;;;1.63;1.20;;;;;;;20.86;62.00;99586.72;5091629;28;20265;-79
2022/07/14 00:19:42;;;;;;;2.37;1.20;;;;;;;20.80;63.22;99587.06;5091961;28;20249;-80
2022/07/14 00:22:09;;;;;;;3.97;1.43;;;;;;;20.75;63.55;99587.13;5081010;28;20262;-80
2022/07/14 00:24:36;;;;;;;1.63;1.40;;;;;;;20.71;63.52;99580.63;5099929;28;20258;-79
2022/07/14 00:27:02;;;;;;;1.30;1.20;;;;;;;20.65;63.84;99585.28;5093192;28;20262;-79
2022/07/14 00:29:29;;;;;;;1.63;1.10;;;;;;;20.60;63.95;99579.91;5099622;28;20241;-80
2022/07/14 00:31:57;;;;;;;1.30;1.20;;;;;;;20.51;64.95;99582.44;5101265;28;20263;-80
2022/07/14 00:34:24;;;;;;;1.27;1.13;;;;;;;20.48;65.23;99584.91;5093997;28;20231;-80
2022/07/14 00:36:50;;;;;;;1.10;1.00;;;;;;;20.41;66.07;99587.97;5101443;28;20225;-78
2022/07/14 00:39:18;;;;;;;1.47;1.20;;;;;;;20.35;66.46;99577.38;5074089;28;20228;-81
2022/07/14 00:41:45;;;;;;;1.80;1.50;;;;;;;20.27;68.01;99586.94;5086357;28;20670;-80
2022/07/14 00:44:12;;;;;;;1.57;1.10;;;;;;;20.22;67.70;99589.72;5082979;28;20714;-80
2022/07/14 00:46:39;;;;;;;2.57;1.10;;;;;;;20.18;67.46;99591.38;5094209;28;20262;-80
2022/07/14 00:49:05;;;;;;;1.20;1.10;;;;;;;20.18;67.63;99588.66;5096606;28;20232;-79
2022/07/14 00:51:32;;;;;;;1.23;1.13;;;;;;;20.09;67.64;99577.56;5075926;28;20355;-80
2022/07/14 00:53:59;;;;;;;1.67;1.20;;;;;;;20.05;67.91;99579.22;5088943;28;20266;-79
2022/07/14 00:56:27;;;;;;;1.20;1.03;;;;;;;19.98;68.71;99578.72;5063774;28;20222;-79
2022/07/14 00:58:54;;;;;;;1.40;1.30;;;;;;;19.99;68.74;99585.78;5093175;28;20244;-80
2022/07/14 01:01:21;;;;;;;1.37;1.20;;;;;;;19.85;70.03;99576.63;5056607;28;20237;-79
2022/07/14 01:03:48;;;;;;;2.13;1.20;;;;;;;19.79;70.73;99580.47;5096128;28;20242;-79
2022/07/14 01:06:15;;;;;;;1.53;1.20;;;;;;;19.74;71.38;99578.59;5084346;28;20229;-80
2022/07/14 01:08:42;;;;;;;1.50;1.13;;;;;;;19.70;72.21;99574.00;5087247;28;20702;-79
2022/07/14 01:11:08;;;;;;;1.40;1.30;;;;;;;19.65;73.03;99579.47;5093154;28;20370;-80
2022/07/14 01:13:36;;;;;;;1.30;1.20;;;;;;;19.61;73.14;99575.69;5080125;28;20241;-79
2022/07/14 01:16:04;;;;;;;1.23;1.17;;;;;;;19.58;72.82;99570.81;5078049;28;20281;-80
2022/07/14 01:18:32;;;;;;;1.30;1.20;;;;;;;19.58;73.63;99578.97;5083115;28;20232;-79
2022/07/14 01:20:59;;;;;;;1.30;1.20;;;;;;;19.54;73.52;99569.75;5086125;28;20324;-79
2022/07/14 01:23:26;;;;;;;1.67;1.20;;;;;;;19.52;73.29;99578.19;5081805;28;20225;-79
2022/07/14 01:25:52;;;;;;;1.57;1.13;;;;;;;19.45;73.20;99566.81;5070025;28;20939;-80
2022/07/14 01:28:19;;;;;;;2.07;1.37;;;;;;;19.44;73.24;99575.22;5079916;28;20591;-79
2022/07/14 01:30:46;;;;;;;1.43;1.27;;;;;;;19.41;73.26;99575.78;5072546;28;20254;-80
2022/07/14 01:33:13;;;;;;;1.93;1.30;;;;;;;19.36;73.34;99571.97;5088170;28;20259;-80
2022/07/14 01:35:40;;;;;;;3.27;1.20;;;;;;;19.31;73.47;99573.91;5065344;28;20313;-77
2022/07/14 01:38:07;;;;;;;1.43;1.33;;;;;;;19.25;73.43;99567.69;5049561;28;20264;-77
2022/07/14 01:40:33;;;;;;;1.43;1.30;;;;;;;19.25;73.40;99564.97;5083498;28;20226;-77
2022/07/14 01:43:00;;;;;;;1.73;1.43;;;;;;;19.22;73.47;99568.22;5093877;28;20317;-77
2022/07/14 01:45:26;;;;;;;1.53;1.43;;;;;;;19.21;73.54;99563.06;5097369;28;20233;-77
2022/07/14 01:47:53;;;;;;;1.30;1.20;;;;;;;19.18;73.72;99563.63;5072098;28;20231;-78
2022/07/14 01:50:21;;;;;;;1.30;1.20;;;;;;;19.16;73.19;99563.09;5076024;28;20242;-80
2022/07/14 01:52:48;;;;;;;1.13;1.10;;;;;;;19.13;73.33;99561.72;5093552;28;20223;-77
2022/07/14 01:55:16;;;;;;;1.53;1.30;;;;;;;19.10;73.39;99553.34;5074411;28;20248;-77
2022/07/14 01:57:43;;;;;;;1.30;1.20;;;;;;;19.10;73.65;99556.03;5091292;28;20672;-77
2022/07/14 02:00:11;;;;;;;1.43;1.20;;;;;;;19.11;73.57;99555.78;5070995;28;20270;-77
2022/07/14 02:02:47;;;;;;;1.50;1.30;;;;;;;19.12;73.19;99560.13;5075783;28;20231;-78
2022/07/14 02:05:14;;;;;;;1.33;1.23;;;;;;;19.10;73.03;99550.63;5067979;28;20284;-78
2022/07/14 02:07:41;;;;;;;1.43;1.20;;;;;;;19.11;72.40;99554.97;5086835;28;20238;-78
2022/07/14 02:13:16;;;;;;;2.10;1.40;;;;;;;19.06;72.14;99549.56;5086948;28;20301;-78
2022/07/14 02:15:42;;;;;;;1.20;1.10;;;;;;;19.10;71.84;99540.56;5084923;28;20257;-78
2022/07/14 02:18:11;;;;;;;1.33;1.20;;;;;;;19.12;71.16;99553.88;5076435;28;20234;-78
2022/07/14 02:20:38;;;;;;;1.20;1.10;;;;;;;19.14;70.73;99547.06;5073351;28;20237;-78
2022/07/14 02:23:04;;;;;;;1.40;1.00;;;;;;;19.15;70.63;99551.41;5089199;28;20261;-78
2022/07/14 02:25:31;;;;;;;1.17;1.10;;;;;;;19.20;70.19;99548.69;5087495;28;20250;-78
2022/07/14 02:27:58;;;;;;;1.37;1.27;;;;;;;19.17;69.82;99549.25;5073365;28;20299;-78
2022/07/14 02:30:24;;;;;;;1.50;1.20;;;;;;;19.29;68.52;99548.91;5085071;28;20261;-78
2022/07/14 02:32:51;;;;;;;1.17;1.17;;;;;;;19.31;68.45;99554.91;5082877;28;20277;-77
2022/07/14 02:35:18;;;;;;;1.07;1.00;;;;;;;19.33;68.26;99555.41;5082263;28;20280;-78
2022/07/14 02:37:46;;;;;;;1.00;1.00;;;;;;;19.36;67.74;99552.16;5069922;28;21270;-78
2022/07/14 02:40:12;;;;;;;1.17;1.10;;;;;;;19.40;67.28;99546.97;5083085;28;20306;-77
2022/07/14 02:42:39;;;;;;;2.10;1.23;;;;;;;19.47;66.90;99556.47;5069961;28;20598;-79
2022/07/14 02:45:06;;;;;;;2.17;1.20;;;;;;;19.49;66.49;99550.75;5076234;28;20234;-78
2022/07/14 02:47:33;;;;;;;1.40;1.30;;;;;;;19.65;64.93;99552.28;5071032;28;20264;-79
2022/07/14 02:50:00;;;;;;;1.10;1.00;;;;;;;19.62;65.04;99552.84;5083576;28;20236;-78
2022/07/14 02:52:28;;;;;;;1.40;1.30;;;;;;;19.65;65.29;99560.44;5067107;28;20239;-80
2022/07/14 02:54:55;;;;;;;1.47;1.00;;;;;;;19.68;64.76;99568.88;5061409;28;20251;-79
2022/07/14 02:57:25;;;;;;;1.63;1.03;;;;;;;19.73;63.71;99559.88;5074414;28;20232;-79
2022/07/14 02:59:54;;;;;;;1.20;1.17;;;;;;;19.75;64.06;99563.09;5072870;28;20256;-80
2022/07/14 03:02:21;;;;;;;1.30;1.13;;;;;;;19.77;63.68;99558.22;5063153;28;20237;-79
2022/07/14 03:04:47;;;;;;;4.10;1.30;;;;;;;19.80;63.79;99563.06;5085131;28;20235;-79
2022/07/14 03:07:14;;;;;;;1.67;1.20;;;;;;;19.80;63.89;99565.78;5088501;28;20262;-80
2022/07/14 03:09:42;;;;;;;1.97;1.00;;;;;;;19.79;63.90;99562.25;5061993;28;20742;-77
2022/07/14 03:12:08;;;;;;;2.27;1.10;;;;;;;19.84;63.58;99571.47;5060554;28;20312;-79
2022/07/14 03:14:40;;;;;;;1.40;1.10;;;;;;;19.89;63.10;99566.00;5081016;28;20247;-76
2022/07/14 03:17:07;;;;;;;2.30;1.27;;;;;;;19.96;62.93;99564.63;5078590;28;20794;-75
2022/07/14 03:19:34;;;;;;;2.40;1.10;;;;;;;19.98;62.67;99564.31;5071124;28;20235;-76
2022/07/14 03:22:01;;;;;;;1.87;1.07;;;;;;;20.00;62.93;99562.94;5083919;28;20232;-80
2022/07/14 03:24:31;;;;;;;1.13;1.03;;;;;;;20.10;62.92;99562.06;5079661;28;20263;-76
2022/07/14 03:26:59;;;;;;;1.20;1.10;;;;;;;20.19;62.57;99563.91;5092290;28;20614;-76
2022/07/14 03:29:27;;;;;;;1.30;1.20;;;;;;;20.30;62.45;99567.34;5071789;28;20677;-78
2022/07/14 03:31:57;;;;;;;1.30;1.20;;;;;;;20.40;61.92;99574.63;5093817;28;20240;-78
2022/07/14 03:34:23;;;;;;;2.27;1.30;;;;;;;20.44;61.38;99564.78;5091123;28;20228;-79
2022/07/14 03:36:51;;;;;;;1.27;1.13;;;;;;;20.50;60.66;99569.91;5069637;28;20261;-77
2022/07/14 03:39:24;;;;;;;1.60;1.50;;;;;;;20.59;60.04;99572.81;5076013;28;20311;-77
2022/07/14 03:41:51;;;;;;;1.10;1.10;;;;;;;20.67;59.79;99572.19;5084378;28;20760;-80
2022/07/14 03:44:18;;;;;;;2.00;1.20;;;;;;;20.76;58.77;99573.22;5079421;28;20700;-78
2022/07/14 03:46:45;;;;;;;1.27;1.17;;;;;;;20.85;58.57;99563.31;5056307;28;20278;-78
2022/07/14 03:49:16;;;;;;;1.30;1.20;;;;;;;20.92;57.13;99558.34;5071850;28;20291;-78
2022/07/14 03:51:43;;;;;;;2.40;1.10;;;;;;;21.00;56.41;99560.41;5066036;28;20231;-78
2022/07/14 03:54:14;;;;;;;1.10;1.00;;;;;;;21.08;55.46;99557.06;5084734;28;20272;-77
2022/07/14 03:56:41;;;;;;;1.73;1.17;;;;;;;21.16;55.75;99557.56;5083849;28;20216;-78
2022/07/14 03:59:10;;;;;;;1.20;1.10;;;;;;;21.21;55.68;99557.50;5091451;28;20245;-78
2022/07/14 04:01:38;;;;;;;2.10;1.20;;;;;;;21.24;55.46;99557.72;5075266;28;20242;-79
2022/07/14 04:04:04;;;;;;;2.23;1.00;;;;;;;21.31;55.31;99557.38;5055245;28;20309;-78
2022/07/14 04:06:32;;;;;;;1.37;1.20;;;;;;;21.37;55.79;99556.22;5084963;28;20230;-77
2022/07/14 04:09:00;;;;;;;3.10;1.30;;;;;;;21.42;56.25;99561.56;5061926;28;20235;-78
2022/07/14 04:11:29;;;;;;;1.87;1.20;;;;;;;21.48;56.38;99565.88;5076146;28;20912;-78
2022/07/14 04:13:56;;;;;;;1.77;1.00;;;;;;;21.64;55.45;99558.31;5067116;28;20319;-78
2022/07/14 04:16:24;;;;;;;1.00;1.00;;;;;;;21.81;55.02;99562.16;5069732;28;20678;-77
2022/07/14 04:18:52;;;;;;;1.50;1.10;;;;;;;22.25;53.08;99563.69;5066714;28;20219;-77
2022/07/14 04:21:19;;;;;;;2.63;1.30;;;;;;;22.54;51.27;99555.25;5072315;28;20331;-77
2022/07/14 04:23:46;;;;;;;1.83;1.33;;;;;;;22.54;50.40;99549.81;5091787;28;20294;-78
2022/07/14 04:26:13;;;;;;;1.40;1.30;;;;;;;22.54;49.28;99552.53;5078530;28;20228;-78
2022/07/14 04:28:41;;;;;;;20.15;16.30;;;;;;;22.49;49.20;99550.72;5063379;28;20600;-76
2022/07/14 04:31:08;;;;;;;3.08;2.78;;;;;;;22.43;48.56;99549.19;5092753;28;20233;-79
2022/07/14 04:33:37;;;;;;;1.92;1.83;;;;;;;22.34;49.27;99562.72;5083643;28;20242;-79
2022/07/14 04:36:05;;;;;;;2.88;1.35;;;;;;;22.38;49.85;99549.28;5081771;28;20592;-78
2022/07/14 04:38:33;;;;;;;1.50;1.40;;;;;;;22.38;50.18;99550.09;5082326;28;20227;-79
2022/07/14 04:41:02;;;;;;;2.65;1.50;;;;;;;22.48;49.75;99551.03;5081124;28;20423;-80
2022/07/14 04:43:33;;;;;;;2.53;1.33;;;;;;;22.56;49.38;99553.88;5071467;28;20639;-79
2022/07/14 04:46:02;;;;;;;3.38;1.35;;;;;;;22.60;49.62;99552.16;5068792;28;20301;-79
2022/07/14 04:52:01;;;;;;;2.53;1.45;;;;;;;22.59;49.65;99547.81;5081578;28;20235;-79
2022/07/14 04:54:04;;;;;;;3.88;1.33;;;;;;;22.54;50.84;99552.53;5083804;28;20243;-78
2022/07/14 04:56:41;;;;;;;3.17;1.40;;;;;;;22.43;51.00;99553.84;5087752;28;20313;-78
2022/07/14 04:59:30;;;;;;;1.33;1.00;;;;;;;22.38;51.34;99547.38;5076152;28;20255;-79
2022/07/14 05:01:58;;;;;;;2.53;1.30;;;;;;;22.36;51.01;99552.28;5062934;28;20228;-79
2022/07/14 05:04:25;;;;;;;3.72;1.33;;;;;;;22.31;52.14;99562.47;5079896;28;20297;-79
2022/07/14 05:06:52;;;;;;;2.03;1.10;;;;;;;22.30;51.28;99553.47;5082920;28;20312;-79
2022/07/14 05:09:19;;;;;;;1.45;1.20;;;;;;;22.33;50.76;99550.19;5065193;28;20232;-79
2022/07/14 05:11:46;;;;;;;1.60;1.30;;;;;;;22.44;50.61;99541.81;5071430;28;20228;-79
2022/07/14 05:14:13;;;;;;;2.08;1.17;;;;;;;22.58;49.59;99542.66;5074763;28;20239;-79
2022/07/14 05:16:39;;;;;;;1.27;1.00;;;;;;;22.76;48.26;99541.81;5087320;28;20292;-79
2022/07/14 05:19:29;;;;;;;1.58;1.05;;;;;;;22.94;47.68;99542.84;5076104;28;20230;-78
2022/07/14 05:21:56;;;;;;;1.38;1.00;;;;;;;23.07;47.31;99537.38;5075120;28;20263;-79
2022/07/14 05:24:24;;;;;;;2.85;1.20;;;;;;;23.26;46.79;99531.78;5095629;28;20224;-79
2022/07/14 05:26:51;;;;;;;1.13;1.00;;;;;;;23.45;46.27;99532.50;5085382;28;20230;-79
2022/07/14 05:29:17;;;;;;;1.90;1.30;;;;;;;23.70;45.56;99542.09;5092460;28;20236;-79
2022/07/14 05:31:44;;;;;;;1.83;1.13;;;;;;;23.94;45.04;99547.25;5071253;28;20251;-78
2022/07/14 05:34:12;;;;;;;1.90;1.10;;;;;;;24.12;44.19;99541.59;5071563;28;20247;-81
2022/07/14 05:36:40;;;;;;;2.17;1.23;;;;;;;24.31;44.23;99546.94;5069237;28;20234;-79
2022/07/14 05:39:08;;;;;;;3.38;1.10;;;;;;;24.59;44.31;99544.06;5068370;28;20233;-80
2022/07/14 05:41:34;;;;;;;1.25;1.00;;;;;;;24.76;43.51;99536.72;5081493;28;20222;-79
2022/07/14 05:44:01;;;;;;;1.65;1.25;;;;;;;25.01;42.71;99553.63;5074359;28;20584;-79
2022/07/14 05:46:28;;;;;;;1.60;1.27;;;;;;;25.23;42.29;99540.66;5070845;28;20224;-78
2022/07/14 05:48:55;;;;;;;3.17;1.15;;;;;;;25.54;41.09;99550.72;5075928;28;20264;-79
2022/07/14 05:51:22;;;;;;;2.78;1.42;;;;;;;25.91;40.04;99543.84;5079767;28;20258;-79
2022/07/14 05:53:52;;;;;;;3.42;1.00;;;;;;;26.41;39.10;99555.16;5070051;28;20255;-79
2022/07/14 05:56:21;;;;;;;1.98;1.30;;;;;;;26.93;37.69;99550.31;5074906;28;20237;-78
2022/07/14 05:58:49;;;;;;;2.55;1.15;;;;;;;27.29;37.01;99555.34;5082988;28;20222;-78
2022/07/14 06:01:20;;;;;;;2.45;1.02;;;;;;;27.56;35.64;99543.88;5070977;28;20265;-79
2022/07/14 06:03:53;;;;;;;1.30;1.20;;;;;;;28.02;35.39;99545.63;5086122;28;20296;-80
2022/07/14 06:06:21;;;;;;;2.05;1.20;;;;;;;28.23;34.11;99534.66;5051887;28;20959;-79
2022/07/14 06:08:48;;;;;;;1.75;1.15;;;;;;;28.26;34.65;99544.97;5085937;28;20244;-78
2022/07/14 06:11:14;;;;;;;2.78;1.10;;;;;;;28.17;35.41;99541.50;5076376;28;20305;-79
2022/07/14 06:13:42;;;;;;;1.90;0.98;;;;;;;28.06;35.90;99541.06;5084677;28;20716;-78
2022/07/14 06:16:09;;;;;;;3.15;1.10;;;;;;;28.12;35.48;99549.97;5086232;28;20242;-79
2022/07/14 06:18:36;;;;;;;1.60;1.00;;;;;;;28.09;35.73;99542.34;5077432;28;20229;-79
2022/07/14 06:21:08;;;;;;;4.20;1.70;;;;;;;28.13;35.54;99548.81;5074757;28;20696;-79
2022/07/14 06:23:36;;;;;;;3.10;1.25;;;;;;;28.32;35.05;99549.13;5079041;28;20728;-79
2022/07/14 06:26:12;;;;;;;2.72;1.10;;;;;;;28.72;34.40;99547.44;5074113;28;20229;-79
2022/07/14 06:28:42;;;;;;;3.25;1.00;;;;;;;28.98;34.04;99547.09;5072072;28;20224;-78
2022/07/14 06:31:09;;;;;;;1.17;0.98;;;;;;;29.04;32.84;99545.75;5072897;28;20285;-79
2022/07/14 06:33:36;;;;;;;2.25;1.05;;;;;;;29.11;33.17;99540.47;5060332;28;20271;-80
2022/07/14 06:36:19;;;;;;;4.13;1.02;;;;;;;29.38;33.05;99539.00;5075764;28;20232;-79
2022/07/14 06:38:46;;;;;;;1.40;1.10;;;;;;;29.68;32.84;99543.06;5071521;28;20286;-79
2022/07/14 06:41:13;;;;;;;3.85;1.10;;;;;;;29.93;32.57;99535.56;5077982;28;20225;-79
2022/07/14 06:43:43;;;;;;;2.40;1.10;;;;;;;30.49;32.27;99549.41;5074700;28;20233;-79
2022/07/14 06:46:14;;;;;;;6.75;1.30;;;;;;;31.25;31.11;99551.78;5067819;28;20243;-79
2022/07/14 06:48:42;;;;;;;3.70;1.25;;;;;;;31.61;30.42;99544.34;5075809;28;20221;-79
2022/07/14 06:51:09;;;;;;;2.88;1.33;;;;;;;31.65;29.94;99548.78;5027956;28;20238;-79
2022/07/14 06:53:36;;;;;;;3.80;1.10;;;;;;;31.56;29.86;99541.84;5056375;28;20236;-79
2022/07/14 06:56:03;;;;;;;3.97;1.30;;;;;;;31.14;30.99;99539.66;5058257;28;20316;-80
2022/07/14 06:58:30;;;;;;;1.40;1.30;;;;;;;30.89;30.66;99544.53;5047627;28;20233;-79
2022/07/14 07:00:57;;;;;;;2.90;1.63;;;;;;;30.62;30.98;99548.16;5054562;28;20225;-79
2022/07/14 07:03:23;;;;;;;2.72;1.95;;;;;;;30.39;31.19;99528.56;5054976;28;20240;-79
2022/07/14 07:08:35;;;;;;;3.70;1.40;;;;;;;30.39;32.07;99531.34;5052423;28;20225;-79
2022/07/14 07:11:02;;;;;;;5.03;1.50;;;;;;;30.58;30.89;99528.72;5047864;28;20670;-79
2022/07/14 07:13:29;;;;;;;4.00;1.10;;;;;;;30.90;30.63;99528.75;5045791;28;20309;-80
2022/07/14 07:15:57;;;;;;;2.88;1.20;;;;;;;31.38;30.11;99525.59;5055757;28;20229;-80
2022/07/14 07:18:24;;;;;;;2.05;1.13;;;;;;;31.89;29.87;99523.59;5051683;28;20222;-79
2022/07/14 07:20:51;;;;;;;2.45;1.20;;;;;;;32.14;28.61;99526.09;5046503;28;20265;-80
2022/07/14 07:23:18;;;;;;;2.47;1.00;;;;;;;32.33;27.82;99512.22;5044549;28;20237;-80
2022/07/14 07:25:45;;;;;;;5.75;1.40;;;;;;;32.29;27.48;99511.34;5053391;28;20237;-80
2022/07/14 07:28:12;;;;;;;2.88;1.17;;;;;;;32.03;27.30;99495.38;5049208;28;20347;-80
2022/07/14 07:30:38;;;;;;;3.22;1.10;;;;;;;31.77;26.81;99501.59;5045696;28;20222;-80
2022/07/14 07:33:05;;;;;;;2.60;1.02;;;;;;;31.57;27.23;99502.72;5039892;28;20230;-79
2022/07/14 07:35:32;;;;;;;2.28;1.00;;;;;;;31.48;28.56;99500.13;5038220;28;20209;-80
2022/07/14 07:38:05;;;;;;;1.83;1.08;;;;;;;31.35;28.04;99506.16;5040620;28;20234;-80
2022/07/14 07:40:32;;;;;;;1.98;0.80;;;;;;;31.22;27.71;99491.59;5040679;28;20305;-81
2022/07/14 07:42:59;;;;;;;1.50;1.00;;;;;;;31.23;27.75;99486.88;5067588;28;20601;-80
2022/07/14 07:45:25;;;;;;;1.08;0.95;;;;;;;31.22;27.70;99486.06;5050772;28;20257;-79
2022/07/14 07:47:52;;;;;;;0.98;0.80;;;;;;;31.23;28.07;99476.63;5045831;28;20222;-80
2022/07/14 07:50:18;;;;;;;1.75;0.90;;;;;;;31.32;27.64;99482.75;5064443;28;20726;-80
2022/07/14 07:52:45;;;;;;;1.35;0.90;;;;;;;31.37;27.83;99482.47;5077118;28;20240;-80
2022/07/14 07:55:13;;;;;;;1.80;0.80;;;;;;;31.46;27.78;99480.31;5082023;28;20312;-79
2022/07/14 07:57:52;;;;;;;1.65;0.70;;;;;;;31.50;26.31;99474.06;5074569;28;21094;-80
2022/07/14 08:00:20;;;;;;;3.92;0.88;;;;;;;31.56;25.36;99478.97;5067906;28;20232;-80
2022/07/14 08:02:48;;;;;;;0.85;0.80;;;;;;;31.70;25.97;99482.03;5089367;28;20223;-79
2022/07/14 08:05:17;;;;;;;1.40;0.80;;;;;;;31.78;26.47;99474.66;5070622;28;20244;-79
2022/07/14 08:08:07;;;;;;;1.95;0.88;;;;;;;32.05;24.77;99467.31;5073002;28;20312;-80
2022/07/14 08:10:35;;;;;;;2.67;0.88;;;;;;;32.12;25.82;99459.16;5067563;28;20227;-79
2022/07/14 08:13:02;;;;;;;0.80;0.70;;;;;;;32.05;24.63;99459.00;5072881;28;20335;-82
2022/07/14 08:15:29;;;;;;;0.80;0.80;;;;;;;32.07;24.19;99463.00;5085839;28;20333;-79
2022/07/14 08:17:56;;;;;;;0.82;0.80;;;;;;;32.24;23.85;99447.91;5086092;28;20228;-79
2022/07/14 08:20:23;;;;;;;2.78;0.70;;;;;;;32.22;23.88;99450.25;5087689;28;20224;-78
2022/07/14 08:22:51;;;;;;;2.90;0.70;;;;;;;32.11;24.21;99447.25;5083518;28;20790;-79
2022/07/14 08:25:18;;;;;;;0.82;0.77;;;;;;;31.94;25.91;99444.13;5080890;28;20228;-80
2022/07/14 08:27:45;;;;;;;0.73;0.70;;;;;;;31.83;25.17;99443.91;5085956;28;20270;-79
2022/07/14 08:30:12;;;;;;;1.38;0.68;;;;;;;31.61;23.94;99434.38;5076900;28;20228;-79
2022/07/14 08:32:40;;;;;;;0.50;0.50;;;;;;;31.51;23.30;99432.16;5095658;28;20239;-79
2022/07/14 08:35:11;;;;;;;0.50;0.50;;;;;;;31.71;22.42;99433.00;5099672;28;20239;-79
2022/07/14 08:37:38;;;;;;;1.77;0.80;;;;;;;31.82;24.69;99431.25;5069190;28;20778;-82
2022/07/14 08:40:13;;;;;;;1.33;0.68;;;;;;;32.07;24.02;99429.75;5083930;28;20224;-79
2022/07/14 08:42:45;;;;;;;1.30;0.85;;;;;;;32.45;22.79;99425.28;5085814;28;20235;-79
2022/07/14 08:45:15;;;;;;;0.82;0.55;;;;;;;32.77;21.37;99426.66;5088217;28;20228;-79
2022/07/14 08:47:42;;;;;;;1.05;0.60;;;;;;;32.90;21.16;99428.03;5103053;28;20227;-79
2022/07/14 08:50:12;;;;;;;1.30;0.60;;;;;;;32.98;21.92;99420.66;5093660;28;22770;-79
2022/07/14 08:52:39;;;;;;;0.50;0.50;;;;;;;32.99;20.83;99414.69;5079926;28;20235;-79
2022/07/14 08:55:10;;;;;;;0.93;0.70;;;;;;;33.07;20.51;99421.97;5086258;28;20245;-79
2022/07/14 08:57:39;;;;;;;2.05;0.70;;;;;;;33.10;22.47;99418.44;5066677;28;20224;-80
2022/07/14 09:00:09;;;;;;;1.25;0.75;;;;;;;33.11;21.64;99422.03;5085951;28;20271;-79
2022/07/14 09:02:38;;;;;;;2.40;0.60;;;;;;;33.18;22.15;99414.63;5095421;28;20966;-80
2022/07/14 09:05:24;;;;;;;1.40;0.98;;;;;;;33.12;22.54;99418.06;5089082;28;20640;-80
2022/07/14 09:07:59;;;;;;;0.80;0.80;;;;;;;33.00;21.48;99412.72;5070115;28;20262;-79
2022/07/14 09:10:27;;;;;;;1.83;0.90;;;;;;;33.12;22.05;99412.53;5079492;28;20231;-79
2022/07/14 09:13:10;;;;;;;2.88;0.70;;;;;;;33.22;21.89;99417.47;5094110;28;20216;-79
2022/07/14 09:15:46;;;;;;;3.22;0.70;;;;;;;33.25;21.61;99408.38;5082069;28;20228;-80
2022/07/14 09:18:24;;;;;;;0.70;0.70;;;;;;;33.17;21.33;99410.25;5078811;28;20308;-82
2022/07/14 09:20:52;;;;;;;2.00;0.80;;;;;;;33.06;21.19;99400.94;5050913;28;20232;-79
2022/07/14 09:23:35;;;;;;;0.70;0.70;;;;;;;33.22;22.29;99395.25;5100839;28;20288;-80
2022/07/14 09:26:20;;;;;;;0.82;0.75;;;;;;;33.33;21.81;99398.94;5109813;28;20227;-79
2022/07/14 09:28:48;;;;;;;1.15;0.80;;;;;;;33.44;21.76;99390.78;5106017;28;20357;-81
2022/07/14 09:31:21;;;;;;;2.40;0.68;;;;;;;33.40;21.54;99395.47;5091141;28;20227;-81
2022/07/14 09:33:56;;;;;;;1.05;0.95;;;;;;;33.41;21.67;99399.88;5069964;28;20691;-79
2022/07/14 09:36:26;;;;;;;0.60;0.60;;;;;;;33.36;21.35;99387.13;5075889;28;20222;-79
2022/07/14 09:38:57;;;;;;;1.25;0.80;;;;;;;33.54;22.15;99387.31;5081274;28;20224;-79
2022/07/14 09:41:24;;;;;;;2.92;0.80;;;;;;;33.55;21.76;99386.13;5075424;28;20236;-79
2022/07/14 09:44:14;;;;;;;0.70;0.70;;;;;;;33.60;20.86;99385.78;5065149;28;20591;-78
2022/07/14 09:46:44;;;;;;;0.60;0.60;;;;;;;33.66;20.44;99384.28;5077378;28;20221;-79
2022/07/14 09:49:12;;;;;;;2.20;0.70;;;;;;;33.80;21.10;99372.56;5097018;28;20238;-79
2022/07/14 09:51:52;;;;;;;0.77;0.77;;;;;;;33.65;20.71;99379.91;5075812;28;20235;-80
2022/07/14 09:54:39;;;;;;;3.67;0.70;;;;;;;33.71;20.88;99372.06;5085385;28;20251;-79
2022/07/14 09:57:18;;;;;;;2.13;0.80;;;;;;;33.94;19.97;99379.06;5071544;28;20308;-81
2022/07/14 09:59:45;;;;;;;0.98;0.75;;;;;;;33.99;20.35;99381.50;5088715;28;20290;-79
2022/07/14 10:02:16;;;;;;;1.75;0.75;;;;;;;34.08;19.86;99375.63;5099558;28;20330;-81
2022/07/14 10:04:43;;;;;;;1.13;0.70;;;;;;;34.31;20.33;99367.13;5077655;28;20247;-79
2022/07/14 10:07:12;;;;;;;0.73;0.73;;;;;;;34.18;20.08;99351.91;5062601;28;20224;-80
2022/07/14 10:09:43;;;;;;;0.88;0.70;;;;;;;34.38;21.70;99359.66;5067317;28;20314;-80
2022/07/14 10:12:11;;;;;;;3.60;1.13;;;;;;;34.66;20.30;99356.28;5100019;28;20220;-80
2022/07/14 10:14:38;;;;;;;2.38;0.73;;;;;;;34.77;19.75;99350.81;5060303;28;20251;-79
2022/07/14 10:17:05;;;;;;;0.75;0.75;;;;;;;34.68;19.54;99342.81;5100550;28;20227;-79
2022/07/14 10:19:32;;;;;;;1.45;0.80;;;;;;;35.01;19.86;99339.03;5090839;28;20224;-79
2022/07/14 10:21:59;;;;;;;0.60;0.60;;;;;;;35.02;19.75;99335.06;5084221;28;20227;-80
2022/07/14 10:24:27;;;;;;;1.30;0.88;;;;;;;35.30;18.91;99334.41;5102133;28;20239;-80
2022/07/14 10:26:55;;;;;;;1.00;0.63;;;;;;;35.47;19.35;99330.88;5100610;28;20325;-79
2022/07/14 10:29:22;;;;;;;0.98;0.70;;;;;;;35.54;18.16;99330.94;5101790;28;20228;-79
2022/07/14 10:32:00;;;;;;;0.70;0.70;;;;;;;35.79;17.80;99324.66;5097608;28;20665;-80
2022/07/14 10:34:46;;;;;;;3.45;0.70;;;;;;;35.89;18.50;99319.06;5088075;28;20310;-80
2022/07/14 10:37:46;;;;;;;1.02;0.60;;;;;;;36.09;19.14;99319.50;5064234;28;20229;-80
2022/07/14 10:40:20;;;;;;;3.42;1.00;;;;;;;36.16;19.16;99323.09;5072421;28;20236;-80
2022/07/14 10:42:52;;;;;;;1.30;1.05;;;;;;;36.38;19.06;99314.75;5075793;28;20224;-80
2022/07/14 10:45:19;;;;;;;1.33;0.85;;;;;;;36.37;18.58;99316.72;5077836;28;20242;-80
2022/07/14 10:47:50;;;;;;;1.25;0.80;;;;;;;36.31;19.48;99318.31;5086705;28;20220;-80
2022/07/14 10:50:24;;;;;;;0.70;0.70;;;;;;;36.36;18.58;99308.75;5091535;28;20324;-82
2022/07/14 10:52:54;;;;;;;0.70;0.70;;;;;;;36.38;18.92;99309.97;5061389;28;20307;-80
2022/07/14 10:55:27;;;;;;;2.80;0.90;;;;;;;36.25;18.76;99305.19;5089769;28;20225;-80
2022/07/14 10:57:59;;;;;;;2.28;0.80;;;;;;;36.22;19.33;99303.97;5063239;28;20259;-80
2022/07/14 11:00:55;;;;;;;1.40;0.80;;;;;;;36.21;19.08;99293.25;5091191;28;20224;-80
2022/07/14 11:03:44;;;;;;;0.85;0.85;;;;;;;36.65;18.66;99287.22;5082364;28;20237;-80
2022/07/14 11:06:17;;;;;;;1.33;0.80;;;;;;;36.75;19.06;99289.19;5079069;28;20275;-80
2022/07/14 11:09:31;;;;;;;2.15;0.60;;;;;;;36.68;18.42;99289.22;5064835;28;20323;-79
2022/07/14 11:12:13;;;;;;;2.17;0.70;;;;;;;36.66;18.87;99286.81;5095121;28;20377;-80
2022/07/14 11:14:41;;;;;;;2.15;0.80;;;;;;;36.40;18.18;99296.41;5076730;28;20228;-80
2022/07/14 11:17:34;;;;;;;1.65;0.75;;;;;;;36.52;17.67;99296.00;5059687;28;20709;-79
2022/07/14 11:20:01;;;;;;;0.60;0.60;;;;;;;36.49;17.75;99294.00;5064141;28;20232;-80
2022/07/14 11:22:28;;;;;;;1.73;1.00;;;;;;;36.23;18.49;99288.06;5073526;28;20278;-79
2022/07/14 11:25:00;;;;;;;2.08;0.95;;;;;;;36.31;18.81;99282.06;5090679;28;20232;-80
2022/07/14 11:27:33;;;;;;;2.35;0.88;;;;;;;35.95;18.48;99289.63;5080684;28;20296;-80
2022/07/14 11:30:25;;;;;;;0.85;0.70;;;;;;;35.99;18.79;99309.94;5091976;28;20236;-79
2022/07/14 11:33:10;;;;;;;0.75;0.75;;;;;;;36.15;17.91;99290.84;5087917;28;20231;-81
2022/07/14 11:38:39;;;;;;;2.92;0.80;;;;;;;36.29;17.13;99294.81;5079491;28;20235;-81
2022/07/14 11:41:13;;;;;;;1.65;0.80;;;;;;;36.54;17.50;99288.00;5094588;28;20239;-79
2022/07/14 11:43:48;;;;;;;1.42;0.80;;;;;;;36.71;18.13;99294.00;5095602;28;20246;-81
2022/07/14 11:46:22;;;;;;;1.48;0.90;;;;;;;36.77;18.42;99284.00;5097539;28;20235;-82
2022/07/14 11:48:53;;;;;;;0.80;0.80;;;;;;;36.91;18.16;99283.97;5077201;28;20247;-82
2022/07/14 11:51:24;;;;;;;3.85;0.98;;;;;;;36.18;19.37;99281.69;5089017;28;20241;-80
2022/07/14 11:53:56;;;;;;;1.65;0.95;;;;;;;35.90;19.19;99283.63;5092032;28;20212;-81
2022/07/14 11:56:24;;;;;;;0.93;0.82;;;;;;;36.16;18.88;99269.34;5096536;28;20891;-79